createdAt,value
2022-11-04T00:01:40.516Z,98.50
2022-11-04T00:04:09.325Z,98.70
2022-11-04T00:06:37.950Z,99.10
2022-11-04T00:09:09.017Z,98.60
2022-11-04T00:11:54.687Z,98.90
2022-11-04T00:14:23.309Z,98.80
2022-11-04T00:17:08.990Z,99.20
2022-11-04T00:19:50.812Z,98.40
2022-11-04T00:22:36.140Z,96.90
2022-11-04T00:25:24.446Z,97.40
2022-11-04T00:28:10.348Z,98.60
2022-11-04T00:30:38.627Z,96.30
2022-11-04T00:33:23.849Z,97.50
2022-11-04T00:35:52.131Z,96.30
2022-11-04T00:38:20.147Z,98.50
2022-11-04T00:40:49.531Z,98.40
2022-11-04T00:45:46.025Z,97.40
2022-11-04T00:48:13.964Z,99.90
2022-11-04T00:50:42.930Z,98.90
2022-11-04T00:55:39.552Z,97.60
2022-11-04T00:58:09.000Z,99.60
2022-11-04T01:00:37.001Z,99.30
2022-11-04T01:03:05.118Z,99.10
2022-11-04T01:05:33.309Z,98.90
2022-11-04T01:08:01.281Z,99.00
2022-11-04T01:10:29.280Z,97.80
2022-11-04T01:12:57.243Z,97.70
2022-11-04T01:17:55.054Z,97.10
2022-11-04T01:20:22.997Z,99.40
2022-11-04T01:22:50.969Z,99.90
2022-11-04T01:25:18.931Z,99.90
2022-11-04T01:27:46.886Z,99.70
2022-11-04T01:30:15.271Z,99.20
2022-11-04T01:32:44.628Z,97.70
2022-11-04T01:37:40.888Z,98.90
2022-11-04T01:40:10.171Z,99.40
2022-11-04T01:42:38.145Z,97.80
2022-11-04T01:45:11.053Z,97.80
2022-11-04T01:47:42.759Z,97.80
2022-11-04T01:50:15.129Z,99.20
2022-11-04T01:52:46.711Z,98.30
2022-11-04T01:55:19.067Z,98.60
2022-11-04T01:57:50.128Z,99.30
2022-11-04T02:00:18.989Z,99.10
2022-11-04T02:03:00.325Z,99.00
2022-11-04T02:05:31.461Z,98.20
2022-11-04T02:08:01.210Z,97.80
2022-11-04T02:10:31.920Z,97.10
2022-11-04T02:13:01.283Z,97.90
2022-11-04T02:15:38.408Z,97.90
2022-11-04T02:18:16.691Z,97.40
2022-11-04T02:21:05.524Z,97.20
2022-11-04T02:23:59.373Z,98.00
2022-11-04T02:26:58.230Z,98.30
2022-11-04T02:29:47.776Z,96.20
2022-11-04T02:32:25.593Z,95.40
2022-11-04T02:35:01.171Z,98.70
2022-11-04T02:37:36.894Z,99.40
2022-11-04T02:40:17.666Z,96.90
2022-11-04T02:42:54.643Z,96.70
2022-11-04T02:45:30.648Z,97.00
2022-11-04T02:48:04.075Z,97.10
2022-11-04T02:50:38.473Z,97.50
2022-11-04T02:53:13.344Z,96.60
2022-11-04T02:55:45.776Z,96.50
2022-11-04T02:58:19.476Z,97.00
2022-11-04T03:00:50.910Z,95.20
2022-11-04T03:51:12.959Z,97.90
2022-11-04T03:59:04.665Z,99.90
2022-11-04T04:01:43.515Z,99.90
2022-11-04T04:06:46.420Z,99.90
2022-11-04T04:14:37.928Z,99.40
2022-11-04T04:17:11.699Z,98.90
2022-11-04T04:37:50.228Z,99.90
2022-11-04T04:40:39.790Z,99.90
2022-11-04T04:43:27.784Z,99.90
2022-11-04T04:45:57.983Z,99.90
2022-11-04T04:48:27.317Z,99.90
2022-11-04T04:51:02.036Z,99.90
2022-11-04T04:55:58.211Z,99.90
2022-11-04T04:58:26.177Z,99.90
2022-11-04T05:00:54.207Z,99.90
2022-11-04T05:05:53.749Z,99.90
2022-11-04T05:08:24.259Z,99.90
2022-11-04T05:10:52.180Z,99.90
2022-11-04T05:15:59.000Z,99.60
2022-11-04T05:18:26.940Z,99.90
2022-11-04T05:20:56.241Z,99.90
2022-11-04T05:25:52.497Z,99.90
2022-11-04T05:28:20.430Z,99.90
2022-11-04T05:30:48.370Z,99.90
2022-11-04T05:35:44.569Z,99.90
2022-11-04T05:38:13.924Z,99.90
2022-11-04T05:40:41.858Z,99.90
2022-11-04T05:43:09.997Z,99.90
2022-11-04T05:45:38.228Z,99.90
2022-11-04T05:48:07.109Z,99.90
2022-11-04T05:50:35.243Z,99.90
2022-11-04T05:53:03.195Z,99.90
2022-11-04T05:55:32.509Z,99.90
2022-11-04T05:58:00.520Z,99.90
2022-11-04T06:00:29.365Z,99.90
2022-11-04T06:02:58.263Z,99.90
2022-11-04T06:05:26.945Z,99.90
2022-11-04T06:07:55.034Z,99.90
2022-11-04T06:10:23.115Z,99.90
2022-11-04T06:12:52.396Z,99.90
2022-11-04T06:15:20.373Z,99.90
2022-11-04T06:17:48.300Z,99.90
2022-11-04T06:20:16.472Z,99.90
2022-11-04T06:22:44.411Z,99.90
2022-11-04T06:25:12.891Z,99.90
2022-11-04T06:27:41.278Z,99.90
2022-11-04T06:30:14.206Z,99.90
2022-11-04T06:32:42.219Z,99.90
2022-11-04T06:35:10.532Z,99.90
2022-11-04T06:37:38.923Z,99.90
2022-11-04T06:40:08.304Z,99.90
2022-11-04T06:45:05.132Z,99.90
2022-11-04T06:47:34.414Z,99.90
2022-11-04T06:50:02.648Z,99.90
2022-11-04T06:52:30.662Z,99.90
2022-11-04T06:54:58.665Z,99.90
2022-11-04T06:57:26.628Z,99.90
2022-11-04T06:59:54.668Z,99.90
2022-11-04T07:04:55.020Z,99.90
2022-11-04T07:07:22.998Z,99.90
2022-11-04T07:09:50.928Z,99.90
2022-11-04T07:12:18.893Z,99.90
2022-11-04T07:14:46.875Z,99.90
2022-11-04T07:17:14.827Z,99.90
2022-11-04T07:19:42.820Z,99.90
2022-11-04T07:22:12.143Z,99.90
2022-11-04T07:24:40.064Z,99.90
2022-11-04T07:29:37.168Z,99.90
2022-11-04T07:32:05.489Z,99.90
2022-11-04T07:34:33.465Z,99.90
2022-11-04T07:37:01.412Z,99.90
2022-11-04T07:39:30.743Z,99.90
2022-11-04T07:41:59.780Z,99.90
2022-11-04T07:44:28.040Z,99.90
2022-11-04T07:46:56.400Z,99.90
2022-11-04T07:49:25.336Z,99.90
2022-11-04T07:51:53.577Z,99.90
2022-11-04T07:54:21.536Z,99.90
2022-11-04T07:56:50.866Z,99.90
2022-11-04T07:59:18.820Z,99.90
2022-11-04T08:01:46.877Z,99.90
2022-11-04T08:04:14.900Z,99.90
2022-11-04T08:06:42.860Z,99.90
2022-11-04T08:09:10.909Z,99.90
2022-11-04T08:11:38.875Z,99.70
2022-11-04T08:14:08.224Z,99.90
2022-11-04T08:16:36.154Z,98.90
2022-11-04T08:19:04.191Z,98.80
2022-11-04T08:21:33.862Z,97.70
2022-11-04T08:24:03.869Z,97.20
2022-11-04T08:26:31.821Z,97.10
2022-11-04T08:29:01.374Z,96.80
2022-11-04T08:31:32.684Z,96.50
2022-11-04T08:34:01.094Z,97.40
2022-11-04T08:36:31.640Z,96.60
2022-11-04T08:39:01.406Z,97.40
2022-11-04T08:41:32.741Z,97.20
2022-11-04T08:44:01.160Z,96.50
2022-11-04T08:46:33.302Z,95.80
2022-11-04T08:49:04.550Z,93.80
2022-11-04T09:29:14.020Z,87.30
2022-11-04T09:31:43.208Z,87.00
2022-11-04T09:34:12.544Z,85.20
2022-11-04T09:36:40.570Z,82.80
2022-11-04T09:39:08.515Z,84.50
2022-11-04T09:41:58.528Z,82.00
2022-11-04T09:44:29.839Z,79.60
2022-11-04T09:47:01.890Z,84.20
2022-11-04T09:49:36.452Z,77.10
2022-11-04T09:52:08.644Z,78.60
2022-11-04T09:54:46.995Z,77.20
2022-11-04T09:57:19.033Z,79.60
2022-11-04T09:59:49.843Z,76.60
2022-11-04T10:02:43.047Z,77.40
2022-11-04T11:04:29.132Z,71.60
2022-11-04T12:23:02.537Z,68.80
2022-11-04T16:03:24.317Z,89.20
2022-11-04T16:06:03.870Z,72.00
2022-11-04T16:08:33.756Z,75.70
2022-11-04T16:11:16.058Z,78.00
2022-11-04T16:13:44.756Z,83.60
2022-11-04T16:16:30.708Z,83.60
2022-11-04T16:18:59.756Z,82.60
2022-11-04T16:21:30.536Z,86.50
2022-11-04T16:24:01.989Z,88.50
2022-11-04T16:26:34.889Z,89.40
2022-11-04T16:29:02.922Z,88.00
2022-11-04T16:31:35.502Z,88.90
2022-11-04T16:34:04.094Z,90.00
2022-11-04T16:36:35.611Z,90.30
2022-11-04T16:39:08.472Z,90.90
2022-11-04T16:41:39.721Z,90.30
2022-11-04T16:44:18.515Z,85.60
2022-11-04T16:46:46.538Z,85.40
2022-11-04T16:49:16.472Z,87.70
2022-11-04T16:51:44.451Z,88.40
2022-11-04T16:54:12.693Z,91.10
2022-11-04T16:56:42.025Z,91.80
2022-11-04T16:59:11.784Z,91.90
2022-11-04T17:01:40.572Z,91.70
2022-11-04T17:04:08.773Z,90.90
2022-11-04T17:06:37.601Z,91.10
2022-11-04T17:09:07.844Z,91.60
2022-11-04T17:11:35.817Z,90.20
2022-11-04T17:14:05.143Z,89.50
2022-11-04T17:16:33.087Z,89.80
2022-11-04T17:19:00.997Z,86.70
2022-11-04T17:21:28.960Z,87.30
2022-11-04T17:23:57.327Z,90.00
2022-11-04T17:26:25.257Z,90.10
2022-11-04T17:28:53.149Z,90.90
2022-11-04T17:31:22.591Z,91.40
2022-11-04T17:33:50.535Z,88.30
2022-11-04T17:36:20.247Z,85.40
2022-11-04T17:38:49.258Z,83.70
2022-11-04T17:41:34.935Z,84.40
2022-11-04T17:44:02.986Z,82.80
2022-11-04T17:46:41.754Z,84.10
2022-11-04T17:49:13.972Z,86.70
2022-11-04T17:51:43.780Z,86.60
2022-11-04T17:54:12.266Z,89.40
2022-11-04T17:56:40.816Z,90.50
2022-11-04T17:59:09.740Z,88.80
2022-11-04T18:01:39.853Z,88.30
2022-11-04T18:04:08.173Z,90.40
2022-11-04T18:06:39.412Z,91.00
2022-11-04T18:09:09.718Z,90.80
2022-11-04T18:11:55.907Z,90.20
2022-11-04T18:14:24.342Z,89.50
2022-11-04T18:16:53.985Z,89.00
2022-11-04T18:19:23.947Z,89.40
2022-11-04T18:21:52.029Z,89.70
2022-11-04T18:24:20.455Z,88.20
2022-11-04T18:26:48.536Z,88.60
2022-11-04T18:29:17.324Z,89.60
2022-11-04T18:31:49.425Z,89.10
2022-11-04T18:34:19.953Z,88.40
2022-11-04T18:36:48.832Z,87.50
2022-11-04T18:39:18.647Z,88.90
2022-11-04T18:41:46.981Z,88.80
2022-11-04T18:44:17.171Z,89.20
2022-11-04T18:46:45.679Z,90.00
2022-11-04T18:49:14.604Z,90.10
2022-11-04T18:51:45.205Z,90.30
2022-11-04T18:54:14.729Z,91.50
2022-11-04T18:56:43.821Z,92.10
2022-11-04T18:59:12.850Z,92.60
2022-11-04T19:01:41.499Z,93.00
2022-11-04T19:04:09.941Z,92.10
2022-11-04T19:06:42.515Z,92.00
2022-11-04T19:09:44.728Z,92.90
2022-11-04T19:12:18.930Z,93.20
2022-11-04T19:14:46.871Z,92.30
2022-11-04T19:17:14.932Z,91.60
2022-11-04T19:19:43.527Z,90.60
2022-11-04T19:22:11.703Z,90.30
2022-11-04T19:24:41.182Z,91.10
2022-11-04T19:27:09.132Z,91.70
2022-11-04T19:29:37.086Z,91.70
2022-11-04T19:32:09.606Z,91.50
2022-11-04T19:34:41.048Z,90.90
2022-11-04T19:37:09.281Z,91.00
2022-11-04T19:39:37.559Z,91.50
2022-11-04T19:42:24.772Z,91.90
2022-11-04T19:44:52.740Z,92.20
2022-11-04T19:47:20.694Z,92.70
2022-11-04T19:49:48.741Z,93.00
2022-11-04T19:52:16.796Z,93.20
2022-11-04T19:54:44.742Z,92.30
2022-11-04T19:57:14.057Z,91.80
2022-11-04T19:59:41.995Z,92.20
2022-11-04T20:02:11.112Z,91.90
2022-11-04T20:04:39.228Z,90.80
2022-11-04T20:07:07.270Z,89.90
2022-11-04T20:09:35.227Z,90.00
2022-11-04T20:12:20.572Z,90.30
2022-11-04T20:14:49.863Z,89.10
2022-11-04T20:17:17.856Z,90.40
2022-11-04T20:19:45.795Z,90.50
2022-11-04T20:22:13.775Z,90.30
2022-11-04T20:24:41.682Z,90.10
2022-11-04T20:27:14.989Z,88.40
2022-11-04T20:29:43.172Z,87.40
2022-11-04T20:32:12.637Z,87.70
2022-11-04T20:34:40.766Z,96.20
2022-11-04T20:37:09.594Z,87.00
2022-11-04T20:39:37.611Z,86.00
2022-11-04T20:42:05.802Z,86.40
2022-11-04T20:44:34.200Z,86.80
2022-11-04T20:47:02.288Z,87.60
2022-11-04T20:49:31.719Z,87.00
2022-11-04T20:51:59.711Z,87.80
2022-11-04T20:54:27.781Z,87.40
2022-11-04T20:56:55.771Z,85.90
2022-11-04T20:59:23.734Z,86.20
2022-11-04T21:01:52.180Z,85.80
2022-11-04T21:04:21.876Z,87.60
2022-11-04T21:06:52.450Z,87.30
2022-11-04T21:09:22.549Z,97.30
2022-11-04T21:11:51.295Z,86.90
2022-11-04T21:14:20.245Z,87.00
2022-11-04T21:16:48.838Z,88.90
2022-11-04T21:19:17.130Z,88.60
2022-11-04T21:21:46.921Z,97.80
2022-11-04T21:24:17.589Z,89.10
2022-11-04T21:26:46.607Z,89.10
2022-11-04T21:29:16.887Z,89.50
2022-11-04T21:31:45.752Z,89.30
2022-11-04T21:34:13.932Z,90.40
2022-11-04T21:36:42.313Z,90.30
2022-11-04T21:39:13.889Z,90.20
2022-11-04T21:41:43.265Z,90.00
2022-11-04T21:44:14.071Z,90.10
2022-11-04T21:46:42.442Z,90.10
2022-11-04T21:49:14.825Z,90.00
2022-11-04T21:51:42.762Z,87.30
2022-11-04T21:54:12.124Z,90.60
2022-11-04T21:56:40.197Z,91.30
2022-11-04T21:59:16.936Z,91.60
2022-11-04T22:01:46.567Z,91.30
2022-11-04T22:04:14.611Z,91.20
2022-11-04T22:06:43.628Z,91.60
2022-11-04T22:09:12.679Z,90.80
2022-11-04T22:11:40.712Z,90.90
2022-11-04T22:14:12.689Z,90.30
2022-11-04T22:16:41.012Z,90.30
2022-11-04T22:19:13.460Z,90.10
2022-11-04T22:21:43.456Z,90.30
2022-11-04T22:24:12.552Z,90.10
2022-11-04T22:26:41.129Z,90.00
2022-11-04T22:29:11.438Z,89.10
2022-11-04T22:31:42.666Z,88.10
2022-11-04T22:34:10.734Z,89.60
2022-11-04T22:36:39.633Z,89.60
2022-11-04T22:39:11.885Z,90.20
2022-11-04T22:41:41.604Z,89.70
2022-11-04T22:44:10.896Z,91.00
2022-11-04T22:46:39.577Z,91.20
2022-11-04T22:49:08.443Z,91.60
2022-11-04T22:51:36.447Z,92.30
2022-11-04T22:54:08.315Z,92.10
2022-11-04T22:56:37.144Z,92.20
2022-11-04T22:59:05.251Z,92.90
2022-11-04T23:01:34.769Z,92.40
2022-11-04T23:04:02.984Z,92.60
2022-11-04T23:06:31.124Z,92.70
2022-11-04T23:09:00.656Z,92.50
2022-11-04T23:11:48.099Z,92.30
2022-11-04T23:14:36.228Z,92.90
2022-11-04T23:17:32.403Z,93.40
2022-11-04T23:20:00.610Z,92.90
2022-11-04T23:22:46.200Z,92.40
2022-11-04T23:25:14.296Z,92.20
2022-11-04T23:28:02.653Z,92.40
2022-11-04T23:30:33.446Z,93.00
2022-11-04T23:33:04.427Z,92.20
2022-11-04T23:35:51.335Z,91.80
2022-11-04T23:38:20.092Z,91.60
2022-11-04T23:41:03.094Z,90.80
2022-11-04T23:43:31.105Z,98.60
2022-11-04T23:46:16.468Z,89.90
2022-11-04T23:49:03.049Z,89.40
2022-11-04T23:51:49.331Z,90.50
2022-11-04T23:54:34.843Z,92.60
2022-11-04T23:57:20.326Z,91.90
